Tropical Cyclones
[Index]
Main Index Home Page Stock Weather Photos Extreme Storms Discussion Storm News and Storm Chasing Reports Tropical Cyclones / Hurricanes / Typhoons Weather Data and Links Wild Fires / Bushfires Weather Observation Techniques Weather Picture Catalogue Tornado Pictures and Reports Stock Video Footage and DVDs for sale
Season 1992-1993 Tropical Cyclone KONITA Track Map
Season 1992-1993 Summaries: [BoM-AU] [JTWC-AU] [JTWC-SIO] [JTWC-SPAC] [JTWC-SH]
<<- Previous TC | JTWC 1992-1993 Season | Next TC ->>

click for intensity scale information  Lat/long Grid: Show Hide

 Date Labels: Show Hide

Joint Typhoon Warning Centre Cyclone Data

Name: KONITA

29 Apr 1993 18:00 UTC to 07 May 1993 12:00 UTC

    date/time    lat    long     hPa   cat  kts
1993-04-29 18   10.3    74.5                  15          
1993-04-30 00   10.0    73.7                  15          
1993-04-30 06    9.7    73.0                  15          
1993-04-30 12    9.4    72.4                  20          
1993-04-30 18    9.0    71.8                  20          
1993-05-01 00    8.6    71.3                  20          
1993-05-01 06    8.1    70.8                  25          
1993-05-01 12    7.5    70.6                  25          
1993-05-01 18    7.0    70.6                  25          
1993-05-02 00    6.6    71.1                  30          
1993-05-02 06    6.9    71.6                  35          
1993-05-02 12    7.4    71.4            1     45          
1993-05-02 18    7.7    71.0            1     50          
1993-05-03 00    7.9    70.6            1     50          
1993-05-03 06    8.2    70.1            2     55          
1993-05-03 12    8.5    69.6            2     55          
1993-05-03 18    8.8    69.1            2     60          
1993-05-04 00    9.2    68.6            2     65          
1993-05-04 06    9.6    68.3            2     70          
1993-05-04 12   10.0    68.2            3     75          
1993-05-04 18   10.4    68.2            3     75          
1993-05-05 00   10.7    68.3            3     85          
1993-05-05 06   11.0    68.3            3     90          
1993-05-05 12   11.2    68.4            3     85          
1993-05-05 18   11.3    68.5            3     80          
1993-05-06 00   11.2    68.6            2     70          
1993-05-06 06   11.0    68.7            2     55          
1993-05-06 12   10.7    68.9            1     45          
1993-05-06 18   10.5    68.9            1     45          
1993-05-07 00   10.4    68.7                  35          
1993-05-07 06   10.5    68.5                  35          
1993-05-07 12   10.7    68.3                  30          
Winds are 1-min average.

Tropical cyclone tracks developed by Michael Bath using data from the Joint Typhoon Warning Centre Best Tracks and Google Maps.


[Australian Severe Weather index] [Copyright Notice] [Email Contacts] [Search This Site] [Privacy Policy]
Document: tropical_cyclone_konita.htm Updated: 18 September 2016